Lane, Oklahoma
Current Conditions -  °F | °C
As of 1:35 PM on Monday 22 Dec 2014 (Local Time) from KAQR Reporting Station
Broken Clouds Broken Clouds  
Wind Chill: 57°   Ceiling: 2500
Heat Index: 57°   Visibility: 10mi
Dew Point: 45°   Wind: 7mph
Humidity: 63%   Direction: 340°NNW
Pressure: 29.56"   Gusts: NA
Location:  34.3°N, 95.99°W
Report Text: KAQR 221935Z AUTO 34006KT 10SM BKN025 BKN120 14/07 A2956 RMK AO2
Loading
Personal Weather Stations






























Interactive Weather Map New forecast layout! Learn more

10-Day Weather Forecast

Advertisements
Track Severe Weather on mobile